ADDS METAR Data INFO
IDs: Format: Raw Decoded Include TAF

Data at: 2053 UTC 26 May 2017

KJCT 262051Z AUTO VRB06KT 10SM CLR 36/18 A2982 RMK AO2 SLP058 T03610183 58017 TSNO
KJCT 261951Z AUTO 17007KT 10SM CLR 35/19 A2985 RMK AO2 SLP065 T03500194 TSNO
KJCT 261851Z AUTO 21009KT 10SM CLR 34/21 A2986 RMK AO2 SLP072 T03390206 TSNO
KJCT 261751Z AUTO VRB04KT 10SM CLR 31/21 A2988 RMK AO2 SLP076 T03110206 10317 20239 58002 TSNO
KJCT 261651Z AUTO 18011KT 10SM CLR 30/21 A2989 RMK AO2 SLP080 T03000211 TSNO
KJCT 261551Z AUTO 22011G16KT 10SM FEW026 28/21 A2989 RMK AO2 SLP080 T02830211 TSNO
KJCT 261543Z AUTO 22008KT 10SM SCT024 28/22 A2989 RMK AO2 T02830217 TSNO
KJCT 261451Z AUTO 20011KT 9SM OVC022 27/22 A2988 RMK AO2 SLP080 T02670217 53017 TSNO
KJCT 261351Z AUTO 21009G17KT 8SM OVC019 26/22 A2986 RMK AO2 SLP073 T02610217 TSNO
KJCT 261251Z AUTO 18007KT 6SM HZ OVC023 25/22 A2985 RMK AO2 SLP067 T02500222 TSNO
KJCT 261151Z AUTO 00000KT 8SM OVC022 24/22 A2983 RMK AO2 SLP060 T02440217 10261 20239 51011 TSNO
KJCT 261051Z AUTO 00000KT 9SM OVC022 24/22 A2983 RMK AO2 SLP059 T02440217 TSNO
KJCT 260951Z AUTO 00000KT 10SM OVC019 24/22 A2982 RMK AO2 SLP054 T02440217 TSNO
KJCT 260851Z AUTO 00000KT 10SM OVC018 24/22 A2980 RMK AO2 SLP049 T02390217 51008 TSNO
KJCT 260751Z AUTO 18003KT 10SM BKN020 24/21 A2979 RMK AO2 SLP045 T02440211 TSNO
KJCT 260746Z AUTO 17004KT 10SM BKN020 24/21 A2978 RMK AO2 TSNO
KJCT 260651Z AUTO 18003KT 10SM CLR 25/21 A2977 RMK AO2 SLP040 T02500211 TSNO
KJCT 260551Z AUTO 18005G14KT 10SM CLR 26/21 A2976 RMK AO2 SLP037 T02610206 10339 20256 403610167 51017 TSNO
KJCT 260451Z AUTO 18005KT 10SM CLR 26/19 A2975 RMK AO2 SLP034 T02610194 TSNO
KJCT 260351Z AUTO 18005KT 10SM CLR 28/18 A2973 RMK AO2 SLP029 T02780178 TSNO
KJCT 260251Z AUTO 18004KT 10SM CLR 28/17 A2971 RMK AO2 SLP022 T02830172 53013 TSNO
KJCT 260151Z AUTO 18005KT 10SM CLR 30/17 A2969 RMK AO2 SLP016 T03000167 TSNO
KJCT 260051Z AUTO 19012G21KT 10SM CLR 32/16 A2968 RMK AO2 SLP011 T03220156 TSNO
KJCT 252351Z AUTO 17013G20KT 10SM CLR 34/16 A2967 RMK AO2 SLP009 T03390161 10361 20317 56008 TSNO
KJCT 252251Z AUTO 20013G19KT 10SM CLR 36/15 A2967 RMK AO2 PK WND 19026/2210 SLP008 T03560150 TSNO
KJCT 252151Z AUTO 19012G23KT 10SM CLR 36/14 A2968 RMK AO2 SLP011 T03610139 TSNO
KJCT 252051Z AUTO 20012G20KT 10SM CLR 36/14 A2970 RMK AO2 SLP017 T03560139 56019 TSNO
KJCT 251951Z AUTO 22013G19KT 10SM CLR 35/14 A2971 RMK AO2 SLP024 T03500144 TSNO
KJCT 251851Z AUTO 21010G20KT 10SM CLR 33/16 A2973 RMK AO2 SLP029 T03330156 TSNO
KJCT 251751Z AUTO 21014G22KT 10SM CLR 32/16 A2975 RMK AO2 SLP039 T03220156 10322 20183 56005 TSNO
KJCT 251651Z AUTO 21015G20KT 10SM CLR 29/14 A2976 RMK AO2 PK WND 20026/1615 SLP041 T02940144 TSNO
KJCT 251551Z AUTO 21011G19KT 10SM CLR 27/14 A2976 RMK AO2 SLP042 T02720139 TSNO
KJCT 251451Z AUTO 21014G24KT 10SM CLR 25/13 A2977 RMK AO2 PK WND 18027/1404 SLP046 T02500128 51007 TSNO
KJCT 251351Z AUTO 20010G22KT 10SM CLR 23/11 A2976 RMK AO2 SLP043 T02280111 TSNO
KJCT 251251Z AUTO 21008KT 10SM CLR 20/10 A2977 RMK AO2 SLP044 T02000100 TSNO
KJCT 251151Z AUTO VRB05KT 10SM CLR 18/09 A2975 RMK AO2 SLP037 T01830089 10194 20167 53007 TSNO
KJCT 251051Z AUTO 22005KT 10SM CLR 19/08 A2973 RMK AO2 SLP031 T01890078 TSNO
KJCT 250951Z AUTO 00000KT 10SM CLR 19/08 A2972 RMK AO2 SLP030 T01890078 TSNO


Page loaded:  20:53 UTC  |   01:53 PM Pacific  |   02:53 PM Mountain  |   03:53 PM Central  |   04:53 PM Eastern

 

ADVISORIES

FORECASTS

FORECASTS

OBSERVATIONS

USER TOOLS

ABOUT US